sensor_id;sensor_type;location;lat;lon;timestamp;temperature;humidity
2112;DHT22;1062;52.538;13.400;2024-03-29T00:00:42;9.30;99.90
2112;DHT22;1062;52.538;13.400;2024-03-29T00:03:10;9.20;99.90
2112;DHT22;1062;52.538;13.400;2024-03-29T00:05:36;9.20;99.90
2112;DHT22;1062;52.538;13.400;2024-03-29T00:08:03;9.10;99.90
2112;DHT22;1062;52.538;13.400;2024-03-29T00:10:29;9.00;99.90
2112;DHT22;1062;52.538;13.400;2024-03-29T00:12:54;9.00;99.90
2112;DHT22;1062;52.538;13.400;2024-03-29T00:15:20;9.00;99.90
2112;DHT22;1062;52.538;13.400;2024-03-29T00:17:45;9.10;99.90
2112;DHT22;1062;52.538;13.400;2024-03-29T00:20:11;9.10;99.90
2112;DHT22;1062;52.538;13.400;2024-03-29T00:22:37;9.20;99.90
2112;DHT22;1062;52.538;13.400;2024-03-29T00:25:03;9.20;99.90
2112;DHT22;1062;52.538;13.400;2024-03-29T00:27:29;9.30;99.90
2112;DHT22;1062;52.538;13.400;2024-03-29T00:29:55;9.30;99.90
2112;DHT22;1062;52.538;13.400;2024-03-29T00:32:21;9.40;99.90
2112;DHT22;1062;52.538;13.400;2024-03-29T00:34:50;9.40;99.90
2112;DHT22;1062;52.538;13.400;2024-03-29T00:37:16;9.40;99.90
2112;DHT22;1062;52.538;13.400;2024-03-29T00:39:42;9.40;99.90
2112;DHT22;1062;52.538;13.400;2024-03-29T00:42:07;9.40;99.90
2112;DHT22;1062;52.538;13.400;2024-03-29T00:44:34;9.40;99.90
2112;DHT22;1062;52.538;13.400;2024-03-29T00:47:06;9.40;99.90
2112;DHT22;1062;52.538;13.400;2024-03-29T00:49:31;9.40;99.90
2112;DHT22;1062;52.538;13.400;2024-03-29T00:51:57;9.40;99.90
2112;DHT22;1062;52.538;13.400;2024-03-29T00:54:22;9.40;99.90
2112;DHT22;1062;52.538;13.400;2024-03-29T00:56:51;9.30;99.90
2112;DHT22;1062;52.538;13.400;2024-03-29T00:59:18;9.20;99.90
2112;DHT22;1062;52.538;13.400;2024-03-29T01:01:44;9.00;99.90
2112;DHT22;1062;52.538;13.400;2024-03-29T01:04:10;8.90;99.90
2112;DHT22;1062;52.538;13.400;2024-03-29T01:06:35;8.80;99.90
2112;DHT22;1062;52.538;13.400;2024-03-29T01:09:01;8.70;99.90
2112;DHT22;1062;52.538;13.400;2024-03-29T01:11:28;8.60;99.90
2112;DHT22;1062;52.538;13.400;2024-03-29T01:13:54;8.50;99.90
2112;DHT22;1062;52.538;13.400;2024-03-29T01:16:19;8.40;99.90
2112;DHT22;1062;52.538;13.400;2024-03-29T01:18:45;8.30;99.90
2112;DHT22;1062;52.538;13.400;2024-03-29T01:21:12;8.20;99.90
2112;DHT22;1062;52.538;13.400;2024-03-29T01:23:38;8.10;99.90
2112;DHT22;1062;52.538;13.400;2024-03-29T01:26:04;8.00;99.90
2112;DHT22;1062;52.538;13.400;2024-03-29T01:28:30;7.90;99.90
2112;DHT22;1062;52.538;13.400;2024-03-29T01:30:56;7.90;99.90
2112;DHT22;1062;52.538;13.400;2024-03-29T01:33:24;7.80;99.90
2112;DHT22;1062;52.538;13.400;2024-03-29T01:35:49;7.80;99.90
2112;DHT22;1062;52.538;13.400;2024-03-29T01:38:15;7.70;99.90
2112;DHT22;1062;52.538;13.400;2024-03-29T01:40:41;7.70;99.90
2112;DHT22;1062;52.538;13.400;2024-03-29T01:43:06;7.60;99.90
2112;DHT22;1062;52.538;13.400;2024-03-29T01:45:35;7.60;99.90
2112;DHT22;1062;52.538;13.400;2024-03-29T01:48:04;7.60;99.90
2112;DHT22;1062;52.538;13.400;2024-03-29T01:50:30;7.50;99.90
2112;DHT22;1062;52.538;13.400;2024-03-29T01:52:56;7.50;99.90
2112;DHT22;1062;52.538;13.400;2024-03-29T01:55:22;7.50;99.90
2112;DHT22;1062;52.538;13.400;2024-03-29T01:57:48;7.40;99.90
2112;DHT22;1062;52.538;13.400;2024-03-29T02:00:14;7.40;99.90
2112;DHT22;1062;52.538;13.400;2024-03-29T02:02:40;7.40;99.90
2112;DHT22;1062;52.538;13.400;2024-03-29T02:05:05;7.40;99.90
2112;DHT22;1062;52.538;13.400;2024-03-29T02:07:32;7.30;99.90
2112;DHT22;1062;52.538;13.400;2024-03-29T02:09:58;7.30;99.90
2112;DHT22;1062;52.538;13.400;2024-03-29T02:12:23;7.30;99.90
2112;DHT22;1062;52.538;13.400;2024-03-29T02:14:49;7.30;99.90
2112;DHT22;1062;52.538;13.400;2024-03-29T02:17:14;7.30;99.90
2112;DHT22;1062;52.538;13.400;2024-03-29T02:19:40;7.30;99.90
2112;DHT22;1062;52.538;13.400;2024-03-29T02:22:07;7.30;99.90
2112;DHT22;1062;52.538;13.400;2024-03-29T02:24:35;7.30;99.90
2112;DHT22;1062;52.538;13.400;2024-03-29T02:27:01;7.20;99.90
2112;DHT22;1062;52.538;13.400;2024-03-29T02:29:26;7.20;99.90
2112;DHT22;1062;52.538;13.400;2024-03-29T02:31:52;7.20;99.90
2112;DHT22;1062;52.538;13.400;2024-03-29T02:34:17;7.20;99.90
2112;DHT22;1062;52.538;13.400;2024-03-29T02:36:44;7.20;99.90
2112;DHT22;1062;52.538;13.400;2024-03-29T02:39:11;7.10;99.90
2112;DHT22;1062;52.538;13.400;2024-03-29T02:41:36;7.10;99.90
2112;DHT22;1062;52.538;13.400;2024-03-29T02:44:02;7.10;99.90
2112;DHT22;1062;52.538;13.400;2024-03-29T02:46:27;7.10;99.90
2112;DHT22;1062;52.538;13.400;2024-03-29T02:48:53;7.00;99.90
2112;DHT22;1062;52.538;13.400;2024-03-29T02:51:19;7.00;99.90
2112;DHT22;1062;52.538;13.400;2024-03-29T02:53:44;6.90;99.90
2112;DHT22;1062;52.538;13.400;2024-03-29T02:56:10;6.90;99.90
2112;DHT22;1062;52.538;13.400;2024-03-29T02:58:35;6.90;99.90
2112;DHT22;1062;52.538;13.400;2024-03-29T03:01:08;6.90;99.90
2112;DHT22;1062;52.538;13.400;2024-03-29T03:03:35;6.90;99.90
2112;DHT22;1062;52.538;13.400;2024-03-29T03:06:01;6.90;99.90
2112;DHT22;1062;52.538;13.400;2024-03-29T03:08:26;6.90;99.90
2112;DHT22;1062;52.538;13.400;2024-03-29T03:11:10;6.90;99.90
2112;DHT22;1062;52.538;13.400;2024-03-29T03:13:36;6.90;99.90
2112;DHT22;1062;52.538;13.400;2024-03-29T03:16:02;6.90;99.90
2112;DHT22;1062;52.538;13.400;2024-03-29T03:18:28;6.80;99.90
2112;DHT22;1062;52.538;13.400;2024-03-29T03:20:54;6.80;99.90
2112;DHT22;1062;52.538;13.400;2024-03-29T03:23:21;6.70;99.90
2112;DHT22;1062;52.538;13.400;2024-03-29T03:25:56;6.80;99.90
2112;DHT22;1062;52.538;13.400;2024-03-29T03:28:22;6.70;99.90
2112;DHT22;1062;52.538;13.400;2024-03-29T03:30:49;6.60;99.90
2112;DHT22;1062;52.538;13.400;2024-03-29T03:33:15;6.60;99.90
2112;DHT22;1062;52.538;13.400;2024-03-29T03:35:41;6.60;99.90
2112;DHT22;1062;52.538;13.400;2024-03-29T03:38:07;6.60;99.90
2112;DHT22;1062;52.538;13.400;2024-03-29T03:40:34;6.60;99.90
2112;DHT22;1062;52.538;13.400;2024-03-29T03:43:00;6.60;99.90
2112;DHT22;1062;52.538;13.400;2024-03-29T03:45:26;6.60;99.90
2112;DHT22;1062;52.538;13.400;2024-03-29T03:47:51;6.60;99.90
2112;DHT22;1062;52.538;13.400;2024-03-29T03:50:17;6.60;99.90
2112;DHT22;1062;52.538;13.400;2024-03-29T03:52:42;6.50;99.90
2112;DHT22;1062;52.538;13.400;2024-03-29T03:55:08;6.50;99.90
2112;DHT22;1062;52.538;13.400;2024-03-29T03:57:34;6.40;99.90
2112;DHT22;1062;52.538;13.400;2024-03-29T04:00:00;6.40;99.90
2112;DHT22;1062;52.538;13.400;2024-03-29T04:02:26;6.40;99.90
2112;DHT22;1062;52.538;13.400;2024-03-29T04:04:52;6.30;99.90
2112;DHT22;1062;52.538;13.400;2024-03-29T04:07:17;6.30;99.90
2112;DHT22;1062;52.538;13.400;2024-03-29T04:09:43;6.30;99.90
2112;DHT22;1062;52.538;13.400;2024-03-29T04:12:08;6.20;99.90
2112;DHT22;1062;52.538;13.400;2024-03-29T04:14:34;6.20;99.90
2112;DHT22;1062;52.538;13.400;2024-03-29T04:17:00;6.20;99.90
2112;DHT22;1062;52.538;13.400;2024-03-29T04:19:25;6.10;99.90
2112;DHT22;1062;52.538;13.400;2024-03-29T04:21:52;6.20;99.90
2112;DHT22;1062;52.538;13.400;2024-03-29T04:24:18;6.20;99.90
2112;DHT22;1062;52.538;13.400;2024-03-29T04:26:43;6.20;99.90
2112;DHT22;1062;52.538;13.400;2024-03-29T04:29:10;6.20;99.90
2112;DHT22;1062;52.538;13.400;2024-03-29T04:31:36;6.20;99.90
2112;DHT22;1062;52.538;13.400;2024-03-29T04:34:01;6.10;99.90
2112;DHT22;1062;52.538;13.400;2024-03-29T04:36:27;6.10;99.90
2112;DHT22;1062;52.538;13.400;2024-03-29T04:38:52;6.20;99.90
2112;DHT22;1062;52.538;13.400;2024-03-29T04:41:19;6.20;99.90
2112;DHT22;1062;52.538;13.400;2024-03-29T04:43:44;6.20;99.90
2112;DHT22;1062;52.538;13.400;2024-03-29T04:46:11;6.20;99.90
2112;DHT22;1062;52.538;13.400;2024-03-29T04:48:41;6.20;99.90
2112;DHT22;1062;52.538;13.400;2024-03-29T04:51:11;6.30;99.90
2112;DHT22;1062;52.538;13.400;2024-03-29T04:53:37;6.30;99.90
2112;DHT22;1062;52.538;13.400;2024-03-29T04:56:03;6.30;99.90
2112;DHT22;1062;52.538;13.400;2024-03-29T04:58:29;6.30;99.90
2112;DHT22;1062;52.538;13.400;2024-03-29T05:00:55;6.30;99.90
2112;DHT22;1062;52.538;13.400;2024-03-29T05:03:22;6.30;99.90
2112;DHT22;1062;52.538;13.400;2024-03-29T05:05:49;6.30;99.90
2112;DHT22;1062;52.538;13.400;2024-03-29T05:08:16;6.30;99.90
2112;DHT22;1062;52.538;13.400;2024-03-29T05:10:44;6.40;99.90
2112;DHT22;1062;52.538;13.400;2024-03-29T05:13:10;6.40;99.90
2112;DHT22;1062;52.538;13.400;2024-03-29T05:15:35;6.40;99.90
2112;DHT22;1062;52.538;13.400;2024-03-29T05:18:02;6.50;99.90
2112;DHT22;1062;52.538;13.400;2024-03-29T05:20:29;6.50;99.90
2112;DHT22;1062;52.538;13.400;2024-03-29T05:22:54;6.60;99.90
2112;DHT22;1062;52.538;13.400;2024-03-29T05:25:20;6.60;99.90
2112;DHT22;1062;52.538;13.400;2024-03-29T05:27:45;6.70;99.90
2112;DHT22;1062;52.538;13.400;2024-03-29T05:30:11;6.70;99.90
2112;DHT22;1062;52.538;13.400;2024-03-29T05:32:38;6.80;99.90
2112;DHT22;1062;52.538;13.400;2024-03-29T05:35:04;6.80;99.90
2112;DHT22;1062;52.538;13.400;2024-03-29T05:37:30;6.80;99.90
2112;DHT22;1062;52.538;13.400;2024-03-29T05:39:55;6.90;99.90
2112;DHT22;1062;52.538;13.400;2024-03-29T05:42:31;6.90;99.90
2112;DHT22;1062;52.538;13.400;2024-03-29T05:44:56;7.00;99.90
2112;DHT22;1062;52.538;13.400;2024-03-29T05:47:22;7.00;99.90
2112;DHT22;1062;52.538;13.400;2024-03-29T05:49:48;7.00;99.90
2112;DHT22;1062;52.538;13.400;2024-03-29T05:52:14;7.00;99.90
2112;DHT22;1062;52.538;13.400;2024-03-29T05:54:44;7.10;99.90
2112;DHT22;1062;52.538;13.400;2024-03-29T05:57:10;7.10;99.90
2112;DHT22;1062;52.538;13.400;2024-03-29T05:59:36;7.20;99.90
2112;DHT22;1062;52.538;13.400;2024-03-29T06:02:02;7.30;99.90
2112;DHT22;1062;52.538;13.400;2024-03-29T06:04:27;7.30;99.90
2112;DHT22;1062;52.538;13.400;2024-03-29T06:06:59;7.30;99.90
2112;DHT22;1062;52.538;13.400;2024-03-29T06:09:25;7.40;99.90
2112;DHT22;1062;52.538;13.400;2024-03-29T06:11:52;7.50;99.90
2112;DHT22;1062;52.538;13.400;2024-03-29T06:14:17;7.50;99.90
2112;DHT22;1062;52.538;13.400;2024-03-29T06:17:01;7.60;99.90
2112;DHT22;1062;52.538;13.400;2024-03-29T06:19:45;7.60;99.90
2112;DHT22;1062;52.538;13.400;2024-03-29T06:22:11;7.70;99.90
2112;DHT22;1062;52.538;13.400;2024-03-29T06:24:36;7.90;99.90
2112;DHT22;1062;52.538;13.400;2024-03-29T06:27:04;8.00;99.90
2112;DHT22;1062;52.538;13.400;2024-03-29T06:29:30;8.10;99.90
2112;DHT22;1062;52.538;13.400;2024-03-29T06:31:55;8.10;99.90
2112;DHT22;1062;52.538;13.400;2024-03-29T06:34:21;8.10;99.90
2112;DHT22;1062;52.538;13.400;2024-03-29T06:36:46;8.10;99.90
2112;DHT22;1062;52.538;13.400;2024-03-29T06:39:12;8.20;99.90
2112;DHT22;1062;52.538;13.400;2024-03-29T06:41:37;8.30;99.90
2112;DHT22;1062;52.538;13.400;2024-03-29T06:44:03;8.20;99.90
2112;DHT22;1062;52.538;13.400;2024-03-29T06:46:29;8.30;99.90
2112;DHT22;1062;52.538;13.400;2024-03-29T06:48:54;8.60;99.90
2112;DHT22;1062;52.538;13.400;2024-03-29T06:51:20;8.60;99.90
2112;DHT22;1062;52.538;13.400;2024-03-29T06:53:45;8.60;99.90
2112;DHT22;1062;52.538;13.400;2024-03-29T06:56:11;8.80;99.90
2112;DHT22;1062;52.538;13.400;2024-03-29T06:58:37;8.80;99.90
2112;DHT22;1062;52.538;13.400;2024-03-29T07:01:03;9.00;99.90
2112;DHT22;1062;52.538;13.400;2024-03-29T07:03:28;9.20;99.90
2112;DHT22;1062;52.538;13.400;2024-03-29T07:05:54;9.40;99.90
2112;DHT22;1062;52.538;13.400;2024-03-29T07:08:19;9.60;99.90
2112;DHT22;1062;52.538;13.400;2024-03-29T07:10:45;9.60;99.90
2112;DHT22;1062;52.538;13.400;2024-03-29T07:13:10;9.60;99.90
2112;DHT22;1062;52.538;13.400;2024-03-29T07:15:36;9.90;99.90
2112;DHT22;1062;52.538;13.400;2024-03-29T07:18:02;9.90;99.90
2112;DHT22;1062;52.538;13.400;2024-03-29T07:20:30;10.00;99.90
2112;DHT22;1062;52.538;13.400;2024-03-29T07:22:56;9.90;99.90
2112;DHT22;1062;52.538;13.400;2024-03-29T07:25:21;10.00;99.90
2112;DHT22;1062;52.538;13.400;2024-03-29T07:27:47;9.90;99.90
2112;DHT22;1062;52.538;13.400;2024-03-29T07:30:15;9.90;99.90
2112;DHT22;1062;52.538;13.400;2024-03-29T07:32:41;9.90;99.90
2112;DHT22;1062;52.538;13.400;2024-03-29T07:35:06;10.10;99.90
2112;DHT22;1062;52.538;13.400;2024-03-29T07:37:32;10.10;99.90
2112;DHT22;1062;52.538;13.400;2024-03-29T07:39:58;10.20;99.90
2112;DHT22;1062;52.538;13.400;2024-03-29T07:42:23;10.20;99.90
2112;DHT22;1062;52.538;13.400;2024-03-29T07:44:49;10.10;99.90
2112;DHT22;1062;52.538;13.400;2024-03-29T07:47:14;10.30;99.90
2112;DHT22;1062;52.538;13.400;2024-03-29T07:49:40;10.30;99.90
2112;DHT22;1062;52.538;13.400;2024-03-29T07:52:06;10.30;99.90
2112;DHT22;1062;52.538;13.400;2024-03-29T07:54:33;10.40;99.90
2112;DHT22;1062;52.538;13.400;2024-03-29T07:56:59;10.40;99.90
2112;DHT22;1062;52.538;13.400;2024-03-29T07:59:25;10.40;99.90
2112;DHT22;1062;52.538;13.400;2024-03-29T08:01:50;10.40;99.90
2112;DHT22;1062;52.538;13.400;2024-03-29T08:04:17;10.40;99.90
2112;DHT22;1062;52.538;13.400;2024-03-29T08:06:43;10.50;99.90
2112;DHT22;1062;52.538;13.400;2024-03-29T08:09:09;10.60;99.90
2112;DHT22;1062;52.538;13.400;2024-03-29T08:11:35;10.60;99.90
2112;DHT22;1062;52.538;13.400;2024-03-29T08:14:01;10.60;99.90
2112;DHT22;1062;52.538;13.400;2024-03-29T08:16:27;10.60;99.90
2112;DHT22;1062;52.538;13.400;2024-03-29T08:18:53;10.70;99.90
2112;DHT22;1062;52.538;13.400;2024-03-29T08:21:18;10.70;99.90
2112;DHT22;1062;52.538;13.400;2024-03-29T08:23:44;10.70;99.90
2112;DHT22;1062;52.538;13.400;2024-03-29T08:26:11;10.60;99.90
2112;DHT22;1062;52.538;13.400;2024-03-29T08:28:37;10.70;99.90
2112;DHT22;1062;52.538;13.400;2024-03-29T08:31:05;10.70;99.90
2112;DHT22;1062;52.538;13.400;2024-03-29T08:33:31;10.80;99.90
2112;DHT22;1062;52.538;13.400;2024-03-29T08:35:57;10.80;99.90
2112;DHT22;1062;52.538;13.400;2024-03-29T08:38:23;11.00;99.90
2112;DHT22;1062;52.538;13.400;2024-03-29T08:40:49;11.10;99.90
2112;DHT22;1062;52.538;13.400;2024-03-29T08:43:15;11.20;99.90
2112;DHT22;1062;52.538;13.400;2024-03-29T08:45:42;11.30;99.90
2112;DHT22;1062;52.538;13.400;2024-03-29T08:48:07;11.50;99.90
2112;DHT22;1062;52.538;13.400;2024-03-29T08:50:34;11.70;99.90
2112;DHT22;1062;52.538;13.400;2024-03-29T08:53:01;11.70;99.90
2112;DHT22;1062;52.538;13.400;2024-03-29T08:55:27;11.60;99.90
2112;DHT22;1062;52.538;13.400;2024-03-29T08:57:53;11.70;99.90
2112;DHT22;1062;52.538;13.400;2024-03-29T09:00:19;11.70;99.90
2112;DHT22;1062;52.538;13.400;2024-03-29T09:02:46;11.80;99.90
2112;DHT22;1062;52.538;13.400;2024-03-29T09:05:11;11.90;99.90
2112;DHT22;1062;52.538;13.400;2024-03-29T09:07:37;12.10;99.90
2112;DHT22;1062;52.538;13.400;2024-03-29T09:10:04;12.50;99.90
2112;DHT22;1062;52.538;13.400;2024-03-29T09:12:30;12.70;99.90
2112;DHT22;1062;52.538;13.400;2024-03-29T09:14:55;12.70;99.90
2112;DHT22;1062;52.538;13.400;2024-03-29T09:17:21;12.70;99.90
2112;DHT22;1062;52.538;13.400;2024-03-29T09:19:51;12.90;99.90
2112;DHT22;1062;52.538;13.400;2024-03-29T09:22:19;13.10;99.90
2112;DHT22;1062;52.538;13.400;2024-03-29T09:24:44;13.10;99.90
2112;DHT22;1062;52.538;13.400;2024-03-29T09:27:10;13.30;99.90
2112;DHT22;1062;52.538;13.400;2024-03-29T09:29:36;13.50;99.90
2112;DHT22;1062;52.538;13.400;2024-03-29T09:32:01;13.10;99.90
2112;DHT22;1062;52.538;13.400;2024-03-29T09:34:28;13.40;99.90
2112;DHT22;1062;52.538;13.400;2024-03-29T09:36:53;13.40;99.90
2112;DHT22;1062;52.538;13.400;2024-03-29T09:39:19;13.40;99.90
2112;DHT22;1062;52.538;13.400;2024-03-29T09:41:45;13.50;99.90
2112;DHT22;1062;52.538;13.400;2024-03-29T09:44:11;13.30;99.90
2112;DHT22;1062;52.538;13.400;2024-03-29T09:46:37;13.50;99.90
2112;DHT22;1062;52.538;13.400;2024-03-29T09:49:06;13.30;99.90
2112;DHT22;1062;52.538;13.400;2024-03-29T09:51:37;13.50;99.90
2112;DHT22;1062;52.538;13.400;2024-03-29T09:54:05;13.70;99.90
2112;DHT22;1062;52.538;13.400;2024-03-29T09:56:33;14.00;99.90
2112;DHT22;1062;52.538;13.400;2024-03-29T09:59:00;13.80;99.90
2112;DHT22;1062;52.538;13.400;2024-03-29T10:01:27;13.90;99.10
2112;DHT22;1062;52.538;13.400;2024-03-29T10:03:53;13.80;99.00
2112;DHT22;1062;52.538;13.400;2024-03-29T10:06:23;13.60;99.80
2112;DHT22;1062;52.538;13.400;2024-03-29T10:08:49;13.30;99.50
2112;DHT22;1062;52.538;13.400;2024-03-29T10:11:15;13.60;98.60
2112;DHT22;1062;52.538;13.400;2024-03-29T10:13:45;13.70;97.30
2112;DHT22;1062;52.538;13.400;2024-03-29T10:16:11;13.60;98.30
2112;DHT22;1062;52.538;13.400;2024-03-29T10:18:40;13.50;98.50
2112;DHT22;1062;52.538;13.400;2024-03-29T10:21:07;13.40;98.80
2112;DHT22;1062;52.538;13.400;2024-03-29T10:23:34;13.30;99.20
2112;DHT22;1062;52.538;13.400;2024-03-29T10:26:03;13.20;99.90
2112;DHT22;1062;52.538;13.400;2024-03-29T10:28:34;13.20;99.90
2112;DHT22;1062;52.538;13.400;2024-03-29T10:31:04;13.10;99.90
2112;DHT22;1062;52.538;13.400;2024-03-29T10:33:34;12.80;99.90
2112;DHT22;1062;52.538;13.400;2024-03-29T10:36:00;12.70;99.90
2112;DHT22;1062;52.538;13.400;2024-03-29T10:38:27;12.70;99.90
2112;DHT22;1062;52.538;13.400;2024-03-29T10:40:53;12.70;99.90
2112;DHT22;1062;52.538;13.400;2024-03-29T10:43:19;12.60;99.90
2112;DHT22;1062;52.538;13.400;2024-03-29T10:45:49;12.60;99.90
2112;DHT22;1062;52.538;13.400;2024-03-29T10:48:16;12.70;99.90
2112;DHT22;1062;52.538;13.400;2024-03-29T10:50:44;12.80;99.90
2112;DHT22;1062;52.538;13.400;2024-03-29T10:53:12;13.20;99.90
2112;DHT22;1062;52.538;13.400;2024-03-29T10:55:38;13.10;99.90
2112;DHT22;1062;52.538;13.400;2024-03-29T10:58:05;13.00;99.90
2112;DHT22;1062;52.538;13.400;2024-03-29T11:00:33;12.90;99.90
2112;DHT22;1062;52.538;13.400;2024-03-29T11:03:30;13.00;99.90
2112;DHT22;1062;52.538;13.400;2024-03-29T11:06:02;13.20;99.90
2112;DHT22;1062;52.538;13.400;2024-03-29T11:08:32;13.40;99.90
2112;DHT22;1062;52.538;13.400;2024-03-29T11:11:01;13.30;99.90
2112;DHT22;1062;52.538;13.400;2024-03-29T11:13:47;13.60;99.90
2112;DHT22;1062;52.538;13.400;2024-03-29T11:16:15;13.70;99.90
2112;DHT22;1062;52.538;13.400;2024-03-29T11:18:46;13.90;99.90
2112;DHT22;1062;52.538;13.400;2024-03-29T11:21:15;14.00;99.90
2112;DHT22;1062;52.538;13.400;2024-03-29T11:23:51;13.90;99.90
2112;DHT22;1062;52.538;13.400;2024-03-29T11:26:17;13.70;99.90
2112;DHT22;1062;52.538;13.400;2024-03-29T11:28:48;13.90;99.90
2112;DHT22;1062;52.538;13.400;2024-03-29T11:31:15;13.60;99.90
2112;DHT22;1062;52.538;13.400;2024-03-29T11:36:20;13.90;99.90
2112;DHT22;1062;52.538;13.400;2024-03-29T11:38:51;14.00;99.90
2112;DHT22;1062;52.538;13.400;2024-03-29T11:41:21;14.10;99.90
2112;DHT22;1062;52.538;13.400;2024-03-29T11:43:53;13.90;99.90
2112;DHT22;1062;52.538;13.400;2024-03-29T11:46:19;14.00;99.90
2112;DHT22;1062;52.538;13.400;2024-03-29T11:48:46;14.00;99.90
2112;DHT22;1062;52.538;13.400;2024-03-29T11:51:17;14.10;99.90
2112;DHT22;1062;52.538;13.400;2024-03-29T11:53:44;13.70;99.90
2112;DHT22;1062;52.538;13.400;2024-03-29T11:56:10;13.80;99.90
2112;DHT22;1062;52.538;13.400;2024-03-29T11:58:40;13.80;99.90
2112;DHT22;1062;52.538;13.400;2024-03-29T12:01:06;13.60;99.90
2112;DHT22;1062;52.538;13.400;2024-03-29T12:03:38;13.50;99.90
2112;DHT22;1062;52.538;13.400;2024-03-29T12:06:05;13.70;99.90
2112;DHT22;1062;52.538;13.400;2024-03-29T12:08:35;13.70;99.90
2112;DHT22;1062;52.538;13.400;2024-03-29T12:11:02;13.70;99.90
2112;DHT22;1062;52.538;13.400;2024-03-29T12:13:29;13.80;99.90
2112;DHT22;1062;52.538;13.400;2024-03-29T12:15:55;13.60;99.90
2112;DHT22;1062;52.538;13.400;2024-03-29T12:18:22;13.60;99.90
2112;DHT22;1062;52.538;13.400;2024-03-29T12:20:48;13.70;99.90
2112;DHT22;1062;52.538;13.400;2024-03-29T12:23:18;13.40;99.90
2112;DHT22;1062;52.538;13.400;2024-03-29T12:25:45;13.60;99.90
2112;DHT22;1062;52.538;13.400;2024-03-29T12:28:12;13.90;99.90
2112;DHT22;1062;52.538;13.400;2024-03-29T12:30:40;13.80;99.90
2112;DHT22;1062;52.538;13.400;2024-03-29T12:33:12;13.90;99.90
2112;DHT22;1062;52.538;13.400;2024-03-29T12:35:44;13.90;99.90
2112;DHT22;1062;52.538;13.400;2024-03-29T12:38:12;14.10;99.90
2112;DHT22;1062;52.538;13.400;2024-03-29T12:40:38;14.30;99.90
2112;DHT22;1062;52.538;13.400;2024-03-29T12:43:07;14.60;99.90
2112;DHT22;1062;52.538;13.400;2024-03-29T12:45:34;14.80;99.90
2112;DHT22;1062;52.538;13.400;2024-03-29T12:48:01;15.10;99.90
2112;DHT22;1062;52.538;13.400;2024-03-29T12:50:29;15.10;99.90
2112;DHT22;1062;52.538;13.400;2024-03-29T12:52:56;15.50;99.90
2112;DHT22;1062;52.538;13.400;2024-03-29T12:55:23;15.90;99.00
2112;DHT22;1062;52.538;13.400;2024-03-29T12:57:49;15.60;98.10
2112;DHT22;1062;52.538;13.400;2024-03-29T13:00:15;15.60;98.20
2112;DHT22;1062;52.538;13.400;2024-03-29T13:02:41;15.50;98.40
2112;DHT22;1062;52.538;13.400;2024-03-29T13:05:07;15.50;98.60
2112;DHT22;1062;52.538;13.400;2024-03-29T13:07:33;15.60;96.70
2112;DHT22;1062;52.538;13.400;2024-03-29T13:10:03;15.60;96.50
2112;DHT22;1062;52.538;13.400;2024-03-29T13:12:36;15.70;96.10
2112;DHT22;1062;52.538;13.400;2024-03-29T13:15:02;15.60;96.10
2112;DHT22;1062;52.538;13.400;2024-03-29T13:17:32;15.40;94.30
2112;DHT22;1062;52.538;13.400;2024-03-29T13:19:57;15.50;93.30
2112;DHT22;1062;52.538;13.400;2024-03-29T13:22:23;15.50;93.10
2112;DHT22;1062;52.538;13.400;2024-03-29T13:24:48;15.60;92.10
2112;DHT22;1062;52.538;13.400;2024-03-29T13:27:15;15.40;92.40
2112;DHT22;1062;52.538;13.400;2024-03-29T13:29:42;15.30;91.70
2112;DHT22;1062;52.538;13.400;2024-03-29T13:32:07;15.30;91.40
2112;DHT22;1062;52.538;13.400;2024-03-29T13:34:33;15.40;92.10
2112;DHT22;1062;52.538;13.400;2024-03-29T13:36:59;15.30;91.10
2112;DHT22;1062;52.538;13.400;2024-03-29T13:39:24;15.60;90.90
2112;DHT22;1062;52.538;13.400;2024-03-29T13:41:50;15.70;88.90
2112;DHT22;1062;52.538;13.400;2024-03-29T13:44:16;15.90;87.50
2112;DHT22;1062;52.538;13.400;2024-03-29T13:46:43;16.10;84.30
2112;DHT22;1062;52.538;13.400;2024-03-29T13:49:08;16.20;81.90
2112;DHT22;1062;52.538;13.400;2024-03-29T13:51:34;16.30;82.60
2112;DHT22;1062;52.538;13.400;2024-03-29T13:54:00;16.10;83.20
2112;DHT22;1062;52.538;13.400;2024-03-29T13:56:26;16.30;81.80
2112;DHT22;1062;52.538;13.400;2024-03-29T13:58:51;16.30;80.90
2112;DHT22;1062;52.538;13.400;2024-03-29T14:01:17;16.40;80.00
2112;DHT22;1062;52.538;13.400;2024-03-29T14:03:43;16.30;81.90
2112;DHT22;1062;52.538;13.400;2024-03-29T14:06:09;16.40;80.10
2112;DHT22;1062;52.538;13.400;2024-03-29T14:08:35;16.50;81.20
2112;DHT22;1062;52.538;13.400;2024-03-29T14:11:01;16.50;80.90
2112;DHT22;1062;52.538;13.400;2024-03-29T14:13:27;16.50;81.80
2112;DHT22;1062;52.538;13.400;2024-03-29T14:15:54;16.60;79.70
2112;DHT22;1062;52.538;13.400;2024-03-29T14:18:20;16.40;80.60
2112;DHT22;1062;52.538;13.400;2024-03-29T14:20:46;16.60;80.30
2112;DHT22;1062;52.538;13.400;2024-03-29T14:23:12;16.40;81.40
2112;DHT22;1062;52.538;13.400;2024-03-29T14:25:40;16.40;81.70
2112;DHT22;1062;52.538;13.400;2024-03-29T14:28:06;16.60;81.40
2112;DHT22;1062;52.538;13.400;2024-03-29T14:30:32;16.70;81.40
2112;DHT22;1062;52.538;13.400;2024-03-29T14:32:57;16.80;82.40
2112;DHT22;1062;52.538;13.400;2024-03-29T14:35:28;16.80;82.80
2112;DHT22;1062;52.538;13.400;2024-03-29T14:37:56;16.90;82.70
2112;DHT22;1062;52.538;13.400;2024-03-29T14:40:22;16.70;83.70
2112;DHT22;1062;52.538;13.400;2024-03-29T14:42:47;16.40;85.10
2112;DHT22;1062;52.538;13.400;2024-03-29T14:45:13;16.40;86.70
2112;DHT22;1062;52.538;13.400;2024-03-29T14:47:39;16.20;88.50
2112;DHT22;1062;52.538;13.400;2024-03-29T14:50:05;16.20;89.20
2112;DHT22;1062;52.538;13.400;2024-03-29T14:52:37;16.20;90.30
2112;DHT22;1062;52.538;13.400;2024-03-29T14:55:03;16.40;90.30
2112;DHT22;1062;52.538;13.400;2024-03-29T14:57:29;16.30;91.00
2112;DHT22;1062;52.538;13.400;2024-03-29T14:59:55;16.40;91.60
2112;DHT22;1062;52.538;13.400;2024-03-29T15:02:21;16.30;91.50
2112;DHT22;1062;52.538;13.400;2024-03-29T15:04:46;16.20;91.80
2112;DHT22;1062;52.538;13.400;2024-03-29T15:07:12;16.10;92.20
2112;DHT22;1062;52.538;13.400;2024-03-29T15:09:37;16.00;92.60
2112;DHT22;1062;52.538;13.400;2024-03-29T15:12:03;16.00;93.10
2112;DHT22;1062;52.538;13.400;2024-03-29T15:14:30;16.00;93.20
2112;DHT22;1062;52.538;13.400;2024-03-29T15:16:55;16.10;93.10
2112;DHT22;1062;52.538;13.400;2024-03-29T15:19:22;16.00;93.60
2112;DHT22;1062;52.538;13.400;2024-03-29T15:21:48;15.90;93.90
2112;DHT22;1062;52.538;13.400;2024-03-29T15:24:14;15.90;94.60
2112;DHT22;1062;52.538;13.400;2024-03-29T15:26:40;15.80;94.80
2112;DHT22;1062;52.538;13.400;2024-03-29T15:29:06;15.80;95.40
2112;DHT22;1062;52.538;13.400;2024-03-29T15:31:39;15.80;95.60
2112;DHT22;1062;52.538;13.400;2024-03-29T15:34:08;15.90;95.60
2112;DHT22;1062;52.538;13.400;2024-03-29T15:36:35;15.70;95.80
2112;DHT22;1062;52.538;13.400;2024-03-29T15:39:03;15.70;96.60
2112;DHT22;1062;52.538;13.400;2024-03-29T15:41:38;15.60;96.90
2112;DHT22;1062;52.538;13.400;2024-03-29T15:44:09;15.50;97.00
2112;DHT22;1062;52.538;13.400;2024-03-29T15:46:35;15.50;97.40
2112;DHT22;1062;52.538;13.400;2024-03-29T15:49:01;15.40;97.90
2112;DHT22;1062;52.538;13.400;2024-03-29T15:51:27;15.50;98.10